sensor_id;sensor_type;location;lat;lon;timestamp;P1;durP1;ratioP1;P2;durP2;ratioP2
14048;SDS011;7099;53.922;10.728;2023-05-23T00:02:22;10.30;;;6.60;;
14048;SDS011;7099;53.922;10.728;2023-05-23T00:06:28;9.03;;;6.17;;
14048;SDS011;7099;53.922;10.728;2023-05-23T00:10:33;7.93;;;7.03;;
14048;SDS011;7099;53.922;10.728;2023-05-23T00:14:39;6.83;;;6.13;;
14048;SDS011;7099;53.922;10.728;2023-05-23T00:18:44;7.43;;;6.20;;
14048;SDS011;7099;53.922;10.728;2023-05-23T00:22:50;7.50;;;6.27;;
14048;SDS011;7099;53.922;10.728;2023-05-23T00:26:56;9.30;;;7.10;;
14048;SDS011;7099;53.922;10.728;2023-05-23T00:31:02;9.63;;;6.70;;
14048;SDS011;7099;53.922;10.728;2023-05-23T00:35:08;7.50;;;6.70;;
14048;SDS011;7099;53.922;10.728;2023-05-23T00:39:14;9.37;;;7.10;;
14048;SDS011;7099;53.922;10.728;2023-05-23T00:43:25;8.87;;;6.83;;
14048;SDS011;7099;53.922;10.728;2023-05-23T00:47:31;8.00;;;7.20;;
14048;SDS011;7099;53.922;10.728;2023-05-23T00:51:37;9.87;;;6.57;;
14048;SDS011;7099;53.922;10.728;2023-05-23T00:55:43;11.30;;;7.00;;
14048;SDS011;7099;53.922;10.728;2023-05-23T00:59:49;9.40;;;7.23;;
14048;SDS011;7099;53.922;10.728;2023-05-23T01:03:55;8.90;;;7.03;;
14048;SDS011;7099;53.922;10.728;2023-05-23T01:08:00;9.47;;;6.60;;
14048;SDS011;7099;53.922;10.728;2023-05-23T01:16:52;7.20;;;6.40;;
14048;SDS011;7099;53.922;10.728;2023-05-23T01:21:04;7.33;;;6.20;;
14048;SDS011;7099;53.922;10.728;2023-05-23T01:25:24;8.83;;;6.67;;
14048;SDS011;7099;53.922;10.728;2023-05-23T01:29:52;7.40;;;6.70;;
14048;SDS011;7099;53.922;10.728;2023-05-23T01:34:01;7.33;;;6.60;;
14048;SDS011;7099;53.922;10.728;2023-05-23T01:38:08;7.43;;;6.63;;
14048;SDS011;7099;53.922;10.728;2023-05-23T01:42:14;7.80;;;7.00;;
14048;SDS011;7099;53.922;10.728;2023-05-23T01:46:20;9.90;;;7.60;;
14048;SDS011;7099;53.922;10.728;2023-05-23T01:50:27;8.40;;;7.53;;
14048;SDS011;7099;53.922;10.728;2023-05-23T01:54:33;11.63;;;7.97;;
14048;SDS011;7099;53.922;10.728;2023-05-23T01:58:40;9.90;;;7.17;;
14048;SDS011;7099;53.922;10.728;2023-05-23T02:02:46;8.13;;;7.10;;
14048;SDS011;7099;53.922;10.728;2023-05-23T02:06:51;9.60;;;8.30;;
14048;SDS011;7099;53.922;10.728;2023-05-23T02:10:57;9.83;;;8.20;;
14048;SDS011;7099;53.922;10.728;2023-05-23T02:15:03;8.70;;;7.80;;
14048;SDS011;7099;53.922;10.728;2023-05-23T02:19:09;10.47;;;8.60;;
14048;SDS011;7099;53.922;10.728;2023-05-23T02:23:14;8.57;;;7.67;;
14048;SDS011;7099;53.922;10.728;2023-05-23T02:27:20;9.40;;;8.00;;
14048;SDS011;7099;53.922;10.728;2023-05-23T02:31:25;12.80;;;9.20;;
14048;SDS011;7099;53.922;10.728;2023-05-23T02:35:32;10.60;;;8.07;;
14048;SDS011;7099;53.922;10.728;2023-05-23T02:39:38;11.33;;;9.17;;
14048;SDS011;7099;53.922;10.728;2023-05-23T02:43:44;10.77;;;8.33;;
14048;SDS011;7099;53.922;10.728;2023-05-23T02:47:51;12.00;;;8.10;;
14048;SDS011;7099;53.922;10.728;2023-05-23T02:51:57;9.43;;;8.43;;
14048;SDS011;7099;53.922;10.728;2023-05-23T02:56:02;9.07;;;8.10;;
14048;SDS011;7099;53.922;10.728;2023-05-23T03:00:08;9.77;;;8.77;;
14048;SDS011;7099;53.922;10.728;2023-05-23T03:04:15;9.50;;;8.43;;
14048;SDS011;7099;53.922;10.728;2023-05-23T03:08:22;11.33;;;8.27;;
14048;SDS011;7099;53.922;10.728;2023-05-23T03:12:28;10.87;;;8.67;;
14048;SDS011;7099;53.922;10.728;2023-05-23T03:16:33;10.67;;;9.53;;
14048;SDS011;7099;53.922;10.728;2023-05-23T03:20:39;10.27;;;8.83;;
14048;SDS011;7099;53.922;10.728;2023-05-23T03:24:44;10.20;;;8.90;;
14048;SDS011;7099;53.922;10.728;2023-05-23T03:28:50;10.03;;;9.03;;
14048;SDS011;7099;53.922;10.728;2023-05-23T03:32:55;11.13;;;10.03;;
14048;SDS011;7099;53.922;10.728;2023-05-23T03:37:01;14.97;;;10.83;;
14048;SDS011;7099;53.922;10.728;2023-05-23T03:41:07;15.97;;;11.83;;
14048;SDS011;7099;53.922;10.728;2023-05-23T03:45:12;13.40;;;10.50;;
14048;SDS011;7099;53.922;10.728;2023-05-23T03:49:18;12.87;;;11.13;;
14048;SDS011;7099;53.922;10.728;2023-05-23T03:53:23;14.43;;;10.10;;
14048;SDS011;7099;53.922;10.728;2023-05-23T03:57:29;15.20;;;10.70;;
14048;SDS011;7099;53.922;10.728;2023-05-23T04:01:34;22.07;;;11.63;;
14048;SDS011;7099;53.922;10.728;2023-05-23T04:05:40;12.47;;;10.27;;
14048;SDS011;7099;53.922;10.728;2023-05-23T04:09:46;12.23;;;10.13;;
14048;SDS011;7099;53.922;10.728;2023-05-23T04:13:51;11.13;;;10.00;;
14048;SDS011;7099;53.922;10.728;2023-05-23T04:17:57;12.70;;;10.57;;
14048;SDS011;7099;53.922;10.728;2023-05-23T04:22:03;12.13;;;10.67;;
14048;SDS011;7099;53.922;10.728;2023-05-23T04:26:09;20.20;;;10.43;;
14048;SDS011;7099;53.922;10.728;2023-05-23T04:30:15;12.13;;;9.80;;
14048;SDS011;7099;53.922;10.728;2023-05-23T04:34:22;11.40;;;9.90;;
14048;SDS011;7099;53.922;10.728;2023-05-23T04:38:27;14.17;;;10.50;;
14048;SDS011;7099;53.922;10.728;2023-05-23T04:42:33;13.20;;;10.60;;
14048;SDS011;7099;53.922;10.728;2023-05-23T04:46:39;13.57;;;10.83;;
14048;SDS011;7099;53.922;10.728;2023-05-23T04:50:49;14.27;;;10.07;;
14048;SDS011;7099;53.922;10.728;2023-05-23T04:54:56;13.33;;;9.40;;
14048;SDS011;7099;53.922;10.728;2023-05-23T04:59:02;13.87;;;10.30;;
14048;SDS011;7099;53.922;10.728;2023-05-23T05:03:07;13.77;;;10.70;;
14048;SDS011;7099;53.922;10.728;2023-05-23T05:07:15;9.40;;;8.50;;
14048;SDS011;7099;53.922;10.728;2023-05-23T05:11:21;12.50;;;9.20;;
14048;SDS011;7099;53.922;10.728;2023-05-23T05:15:27;12.80;;;8.97;;
14048;SDS011;7099;53.922;10.728;2023-05-23T05:19:32;8.30;;;7.50;;
14048;SDS011;7099;53.922;10.728;2023-05-23T05:23:38;9.17;;;8.00;;
14048;SDS011;7099;53.922;10.728;2023-05-23T05:27:43;12.30;;;7.97;;
14048;SDS011;7099;53.922;10.728;2023-05-23T05:31:49;7.63;;;6.30;;
14048;SDS011;7099;53.922;10.728;2023-05-23T05:35:55;9.20;;;6.77;;
14048;SDS011;7099;53.922;10.728;2023-05-23T05:40:01;8.07;;;6.10;;
14048;SDS011;7099;53.922;10.728;2023-05-23T05:44:10;10.33;;;6.87;;
14048;SDS011;7099;53.922;10.728;2023-05-23T05:48:16;8.17;;;6.60;;
14048;SDS011;7099;53.922;10.728;2023-05-23T05:52:22;7.97;;;6.60;;
14048;SDS011;7099;53.922;10.728;2023-05-23T05:56:27;7.43;;;6.53;;
14048;SDS011;7099;53.922;10.728;2023-05-23T06:00:33;7.77;;;5.67;;
14048;SDS011;7099;53.922;10.728;2023-05-23T06:04:46;7.90;;;5.77;;
14048;SDS011;7099;53.922;10.728;2023-05-23T06:08:51;16.17;;;6.67;;
14048;SDS011;7099;53.922;10.728;2023-05-23T06:12:57;12.03;;;7.63;;
14048;SDS011;7099;53.922;10.728;2023-05-23T06:17:03;12.27;;;7.40;;
14048;SDS011;7099;53.922;10.728;2023-05-23T06:21:09;11.10;;;6.70;;
14048;SDS011;7099;53.922;10.728;2023-05-23T06:25:14;18.50;;;8.50;;
14048;SDS011;7099;53.922;10.728;2023-05-23T06:29:20;13.53;;;8.60;;
14048;SDS011;7099;53.922;10.728;2023-05-23T06:33:26;10.97;;;7.90;;
14048;SDS011;7099;53.922;10.728;2023-05-23T06:37:32;10.93;;;7.60;;
14048;SDS011;7099;53.922;10.728;2023-05-23T06:41:38;10.20;;;6.20;;
14048;SDS011;7099;53.922;10.728;2023-05-23T06:45:47;6.90;;;5.00;;
14048;SDS011;7099;53.922;10.728;2023-05-23T06:49:52;5.70;;;4.80;;
14048;SDS011;7099;53.922;10.728;2023-05-23T06:53:59;5.67;;;3.80;;
14048;SDS011;7099;53.922;10.728;2023-05-23T06:58:05;6.50;;;2.80;;
14048;SDS011;7099;53.922;10.728;2023-05-23T07:02:10;5.40;;;3.20;;
14048;SDS011;7099;53.922;10.728;2023-05-23T07:06:16;5.37;;;2.90;;
14048;SDS011;7099;53.922;10.728;2023-05-23T07:10:21;4.50;;;3.73;;
14048;SDS011;7099;53.922;10.728;2023-05-23T07:14:27;7.23;;;4.13;;
14048;SDS011;7099;53.922;10.728;2023-05-23T07:18:32;6.07;;;4.57;;
14048;SDS011;7099;53.922;10.728;2023-05-23T07:22:42;8.80;;;6.00;;
14048;SDS011;7099;53.922;10.728;2023-05-23T07:26:49;8.10;;;6.40;;
14048;SDS011;7099;53.922;10.728;2023-05-23T07:30:54;13.67;;;6.90;;
14048;SDS011;7099;53.922;10.728;2023-05-23T07:35:02;15.70;;;8.03;;
14048;SDS011;7099;53.922;10.728;2023-05-23T07:39:08;10.37;;;6.77;;
14048;SDS011;7099;53.922;10.728;2023-05-23T07:43:14;9.90;;;7.63;;
14048;SDS011;7099;53.922;10.728;2023-05-23T07:47:20;10.70;;;7.57;;
14048;SDS011;7099;53.922;10.728;2023-05-23T07:51:25;6.40;;;5.80;;
14048;SDS011;7099;53.922;10.728;2023-05-23T07:55:31;13.10;;;6.30;;
14048;SDS011;7099;53.922;10.728;2023-05-23T07:59:37;12.50;;;5.97;;
14048;SDS011;7099;53.922;10.728;2023-05-23T08:03:43;8.30;;;5.87;;
14048;SDS011;7099;53.922;10.728;2023-05-23T08:07:48;11.43;;;5.63;;
14048;SDS011;7099;53.922;10.728;2023-05-23T08:11:54;8.27;;;5.30;;
14048;SDS011;7099;53.922;10.728;2023-05-23T08:16:00;9.90;;;5.30;;
14048;SDS011;7099;53.922;10.728;2023-05-23T08:20:06;13.97;;;5.60;;
14048;SDS011;7099;53.922;10.728;2023-05-23T08:24:13;10.83;;;5.73;;
14048;SDS011;7099;53.922;10.728;2023-05-23T08:28:19;8.47;;;4.67;;
14048;SDS011;7099;53.922;10.728;2023-05-23T08:32:25;7.83;;;5.33;;
14048;SDS011;7099;53.922;10.728;2023-05-23T08:36:30;9.40;;;4.90;;
14048;SDS011;7099;53.922;10.728;2023-05-23T08:40:38;5.80;;;4.40;;
14048;SDS011;7099;53.922;10.728;2023-05-23T08:44:45;10.33;;;5.17;;
14048;SDS011;7099;53.922;10.728;2023-05-23T08:48:55;9.60;;;5.10;;
14048;SDS011;7099;53.922;10.728;2023-05-23T08:53:04;5.93;;;4.67;;
14048;SDS011;7099;53.922;10.728;2023-05-23T08:57:12;7.77;;;4.77;;
14048;SDS011;7099;53.922;10.728;2023-05-23T09:01:18;7.40;;;4.90;;
14048;SDS011;7099;53.922;10.728;2023-05-23T09:05:25;8.20;;;5.43;;
14048;SDS011;7099;53.922;10.728;2023-05-23T09:09:31;8.83;;;6.20;;
14048;SDS011;7099;53.922;10.728;2023-05-23T09:13:38;8.43;;;5.53;;
14048;SDS011;7099;53.922;10.728;2023-05-23T09:17:46;8.90;;;5.70;;
14048;SDS011;7099;53.922;10.728;2023-05-23T09:21:52;10.30;;;5.90;;
14048;SDS011;7099;53.922;10.728;2023-05-23T09:26:02;10.40;;;5.23;;
14048;SDS011;7099;53.922;10.728;2023-05-23T09:30:09;7.70;;;5.23;;
14048;SDS011;7099;53.922;10.728;2023-05-23T09:34:16;5.03;;;4.20;;
14048;SDS011;7099;53.922;10.728;2023-05-23T09:38:22;5.30;;;3.83;;
14048;SDS011;7099;53.922;10.728;2023-05-23T09:42:30;5.80;;;4.10;;
14048;SDS011;7099;53.922;10.728;2023-05-23T09:46:40;4.60;;;3.90;;
14048;SDS011;7099;53.922;10.728;2023-05-23T09:50:45;5.90;;;4.10;;
14048;SDS011;7099;53.922;10.728;2023-05-23T09:54:55;7.73;;;3.90;;
14048;SDS011;7099;53.922;10.728;2023-05-23T09:59:00;9.07;;;3.77;;
14048;SDS011;7099;53.922;10.728;2023-05-23T10:03:11;6.90;;;3.73;;
14048;SDS011;7099;53.922;10.728;2023-05-23T10:07:19;6.30;;;4.10;;
14048;SDS011;7099;53.922;10.728;2023-05-23T10:15:40;7.97;;;4.53;;
14048;SDS011;7099;53.922;10.728;2023-05-23T10:19:56;7.43;;;5.37;;
14048;SDS011;7099;53.922;10.728;2023-05-23T10:24:12;7.70;;;4.97;;
14048;SDS011;7099;53.922;10.728;2023-05-23T10:28:18;6.17;;;4.60;;
14048;SDS011;7099;53.922;10.728;2023-05-23T10:32:25;4.67;;;3.80;;
14048;SDS011;7099;53.922;10.728;2023-05-23T10:36:32;6.03;;;4.80;;
14048;SDS011;7099;53.922;10.728;2023-05-23T10:45:41;5.43;;;4.60;;
14048;SDS011;7099;53.922;10.728;2023-05-23T10:49:52;5.97;;;4.53;;
14048;SDS011;7099;53.922;10.728;2023-05-23T10:53:59;9.10;;;4.73;;
14048;SDS011;7099;53.922;10.728;2023-05-23T10:58:08;4.73;;;3.57;;
14048;SDS011;7099;53.922;10.728;2023-05-23T11:02:25;4.13;;;2.90;;
14048;SDS011;7099;53.922;10.728;2023-05-23T11:06:42;2.90;;;2.50;;
14048;SDS011;7099;53.922;10.728;2023-05-23T11:10:58;2.63;;;2.30;;
14048;SDS011;7099;53.922;10.728;2023-05-23T11:19:23;2.33;;;1.70;;
14048;SDS011;7099;53.922;10.728;2023-05-23T11:23:38;2.40;;;1.50;;
14048;SDS011;7099;53.922;10.728;2023-05-23T11:27:48;4.13;;;2.00;;
14048;SDS011;7099;53.922;10.728;2023-05-23T11:31:57;3.60;;;1.70;;
14048;SDS011;7099;53.922;10.728;2023-05-23T11:36:02;2.83;;;1.70;;
14048;SDS011;7099;53.922;10.728;2023-05-23T11:40:24;4.57;;;2.20;;
14048;SDS011;7099;53.922;10.728;2023-05-23T11:44:34;3.50;;;2.10;;
14048;SDS011;7099;53.922;10.728;2023-05-23T11:48:43;6.70;;;2.80;;
14048;SDS011;7099;53.922;10.728;2023-05-23T11:52:50;12.00;;;3.03;;
14048;SDS011;7099;53.922;10.728;2023-05-23T11:56:58;8.43;;;3.40;;
14048;SDS011;7099;53.922;10.728;2023-05-23T12:01:04;6.83;;;3.10;;
14048;SDS011;7099;53.922;10.728;2023-05-23T12:05:14;8.77;;;3.37;;
14048;SDS011;7099;53.922;10.728;2023-05-23T12:09:20;8.20;;;3.70;;
14048;SDS011;7099;53.922;10.728;2023-05-23T12:13:29;13.10;;;4.40;;
14048;SDS011;7099;53.922;10.728;2023-05-23T12:17:35;11.93;;;3.77;;
14048;SDS011;7099;53.922;10.728;2023-05-23T12:21:51;9.10;;;3.37;;
14048;SDS011;7099;53.922;10.728;2023-05-23T12:25:56;9.63;;;3.50;;
14048;SDS011;7099;53.922;10.728;2023-05-23T12:34:19;8.03;;;3.27;;
14048;SDS011;7099;53.922;10.728;2023-05-23T12:38:27;23.27;;;4.07;;
14048;SDS011;7099;53.922;10.728;2023-05-23T12:42:42;16.10;;;3.33;;
14048;SDS011;7099;53.922;10.728;2023-05-23T12:47:01;9.17;;;2.97;;
14048;SDS011;7099;53.922;10.728;2023-05-23T12:51:08;10.83;;;3.20;;
14048;SDS011;7099;53.922;10.728;2023-05-23T12:55:13;6.77;;;2.90;;
14048;SDS011;7099;53.922;10.728;2023-05-23T12:59:19;12.03;;;2.90;;
14048;SDS011;7099;53.922;10.728;2023-05-23T13:03:24;7.57;;;2.83;;
14048;SDS011;7099;53.922;10.728;2023-05-23T13:07:30;6.73;;;3.10;;
14048;SDS011;7099;53.922;10.728;2023-05-23T13:11:36;7.53;;;3.07;;
14048;SDS011;7099;53.922;10.728;2023-05-23T13:15:41;7.07;;;2.70;;
14048;SDS011;7099;53.922;10.728;2023-05-23T13:19:47;10.90;;;3.40;;
14048;SDS011;7099;53.922;10.728;2023-05-23T13:23:53;10.50;;;3.03;;
14048;SDS011;7099;53.922;10.728;2023-05-23T13:27:58;8.10;;;3.10;;
14048;SDS011;7099;53.922;10.728;2023-05-23T13:32:05;9.07;;;3.40;;
14048;SDS011;7099;53.922;10.728;2023-05-23T13:36:11;12.37;;;4.13;;
14048;SDS011;7099;53.922;10.728;2023-05-23T13:40:18;11.10;;;3.20;;
14048;SDS011;7099;53.922;10.728;2023-05-23T13:44:25;6.57;;;2.83;;
14048;SDS011;7099;53.922;10.728;2023-05-23T13:48:30;13.33;;;2.67;;
14048;SDS011;7099;53.922;10.728;2023-05-23T13:52:36;13.63;;;3.73;;
14048;SDS011;7099;53.922;10.728;2023-05-23T13:56:43;10.60;;;3.47;;
14048;SDS011;7099;53.922;10.728;2023-05-23T14:00:49;7.73;;;3.23;;
14048;SDS011;7099;53.922;10.728;2023-05-23T14:04:54;10.33;;;3.17;;
14048;SDS011;7099;53.922;10.728;2023-05-23T14:09:00;10.07;;;2.83;;
14048;SDS011;7099;53.922;10.728;2023-05-23T14:13:06;18.23;;;3.60;;
14048;SDS011;7099;53.922;10.728;2023-05-23T14:17:14;11.73;;;3.40;;
14048;SDS011;7099;53.922;10.728;2023-05-23T14:21:20;10.77;;;2.80;;
14048;SDS011;7099;53.922;10.728;2023-05-23T14:25:26;10.77;;;3.43;;
14048;SDS011;7099;53.922;10.728;2023-05-23T14:29:31;12.43;;;3.80;;
14048;SDS011;7099;53.922;10.728;2023-05-23T14:33:37;12.60;;;3.10;;
14048;SDS011;7099;53.922;10.728;2023-05-23T14:37:43;13.07;;;3.43;;
14048;SDS011;7099;53.922;10.728;2023-05-23T14:41:50;14.60;;;3.20;;
14048;SDS011;7099;53.922;10.728;2023-05-23T14:45:55;7.17;;;2.83;;
14048;SDS011;7099;53.922;10.728;2023-05-23T14:50:03;8.60;;;2.70;;
14048;SDS011;7099;53.922;10.728;2023-05-23T14:54:09;17.77;;;3.47;;
14048;SDS011;7099;53.922;10.728;2023-05-23T14:58:15;13.77;;;3.40;;
14048;SDS011;7099;53.922;10.728;2023-05-23T15:02:21;11.50;;;3.43;;
14048;SDS011;7099;53.922;10.728;2023-05-23T15:06:27;10.60;;;3.20;;
14048;SDS011;7099;53.922;10.728;2023-05-23T15:10:32;15.77;;;3.03;;
14048;SDS011;7099;53.922;10.728;2023-05-23T15:14:38;10.33;;;3.40;;
14048;SDS011;7099;53.922;10.728;2023-05-23T15:18:43;14.57;;;3.80;;
14048;SDS011;7099;53.922;10.728;2023-05-23T15:22:49;14.63;;;3.03;;
14048;SDS011;7099;53.922;10.728;2023-05-23T15:26:55;9.87;;;2.80;;
14048;SDS011;7099;53.922;10.728;2023-05-23T15:31:20;14.13;;;3.60;;
14048;SDS011;7099;53.922;10.728;2023-05-23T15:35:26;13.57;;;2.80;;
14048;SDS011;7099;53.922;10.728;2023-05-23T15:39:31;14.40;;;3.10;;
14048;SDS011;7099;53.922;10.728;2023-05-23T15:43:37;10.57;;;3.10;;
14048;SDS011;7099;53.922;10.728;2023-05-23T15:47:43;10.67;;;2.80;;
14048;SDS011;7099;53.922;10.728;2023-05-23T15:51:48;16.40;;;2.60;;
14048;SDS011;7099;53.922;10.728;2023-05-23T15:55:54;12.13;;;3.10;;
14048;SDS011;7099;53.922;10.728;2023-05-23T16:00:00;15.63;;;2.90;;
14048;SDS011;7099;53.922;10.728;2023-05-23T16:04:05;17.00;;;3.83;;
14048;SDS011;7099;53.922;10.728;2023-05-23T16:08:11;9.40;;;4.00;;
14048;SDS011;7099;53.922;10.728;2023-05-23T16:12:16;10.57;;;3.70;;
14048;SDS011;7099;53.922;10.728;2023-05-23T16:16:22;13.37;;;3.37;;
14048;SDS011;7099;53.922;10.728;2023-05-23T16:20:27;10.67;;;3.10;;
14048;SDS011;7099;53.922;10.728;2023-05-23T16:24:33;18.17;;;3.63;;
14048;SDS011;7099;53.922;10.728;2023-05-23T16:28:39;13.40;;;2.93;;
14048;SDS011;7099;53.922;10.728;2023-05-23T16:32:47;10.43;;;3.20;;
14048;SDS011;7099;53.922;10.728;2023-05-23T16:36:52;20.87;;;3.40;;
14048;SDS011;7099;53.922;10.728;2023-05-23T16:40:58;13.00;;;3.43;;
14048;SDS011;7099;53.922;10.728;2023-05-23T16:45:04;14.53;;;3.30;;
14048;SDS011;7099;53.922;10.728;2023-05-23T16:49:11;14.13;;;3.10;;
14048;SDS011;7099;53.922;10.728;2023-05-23T16:53:16;14.23;;;2.93;;
14048;SDS011;7099;53.922;10.728;2023-05-23T16:57:22;16.73;;;3.03;;
14048;SDS011;7099;53.922;10.728;2023-05-23T17:01:28;15.07;;;2.90;;
14048;SDS011;7099;53.922;10.728;2023-05-23T17:05:33;8.03;;;2.20;;
14048;SDS011;7099;53.922;10.728;2023-05-23T17:09:39;15.40;;;3.27;;
14048;SDS011;7099;53.922;10.728;2023-05-23T17:13:45;10.53;;;3.80;;
14048;SDS011;7099;53.922;10.728;2023-05-23T17:17:51;14.00;;;3.17;;
14048;SDS011;7099;53.922;10.728;2023-05-23T17:21:57;15.80;;;3.40;;
14048;SDS011;7099;53.922;10.728;2023-05-23T17:26:02;12.77;;;3.00;;
14048;SDS011;7099;53.922;10.728;2023-05-23T17:30:08;12.83;;;3.17;;
14048;SDS011;7099;53.922;10.728;2023-05-23T17:34:18;15.80;;;2.80;;
14048;SDS011;7099;53.922;10.728;2023-05-23T17:38:23;13.73;;;3.03;;
14048;SDS011;7099;53.922;10.728;2023-05-23T17:42:29;15.97;;;2.50;;
14048;SDS011;7099;53.922;10.728;2023-05-23T17:46:35;17.80;;;3.00;;
14048;SDS011;7099;53.922;10.728;2023-05-23T17:50:40;11.07;;;3.60;;
14048;SDS011;7099;53.922;10.728;2023-05-23T17:54:47;9.40;;;2.50;;
14048;SDS011;7099;53.922;10.728;2023-05-23T17:58:53;13.90;;;2.77;;
14048;SDS011;7099;53.922;10.728;2023-05-23T18:02:59;13.37;;;3.03;;
14048;SDS011;7099;53.922;10.728;2023-05-23T18:07:08;11.23;;;3.23;;
14048;SDS011;7099;53.922;10.728;2023-05-23T18:11:16;12.40;;;2.60;;
14048;SDS011;7099;53.922;10.728;2023-05-23T18:15:22;13.40;;;3.37;;
14048;SDS011;7099;53.922;10.728;2023-05-23T18:19:29;17.97;;;3.00;;
14048;SDS011;7099;53.922;10.728;2023-05-23T18:23:34;15.53;;;3.10;;
14048;SDS011;7099;53.922;10.728;2023-05-23T18:27:40;14.73;;;3.03;;
14048;SDS011;7099;53.922;10.728;2023-05-23T18:31:46;15.63;;;3.37;;
14048;SDS011;7099;53.922;10.728;2023-05-23T18:35:51;16.30;;;3.23;;
14048;SDS011;7099;53.922;10.728;2023-05-23T18:39:57;12.83;;;3.07;;
14048;SDS011;7099;53.922;10.728;2023-05-23T18:44:03;15.40;;;3.27;;
14048;SDS011;7099;53.922;10.728;2023-05-23T18:48:09;23.73;;;3.73;;
14048;SDS011;7099;53.922;10.728;2023-05-23T18:52:15;11.37;;;3.33;;
14048;SDS011;7099;53.922;10.728;2023-05-23T18:56:21;17.73;;;3.17;;
14048;SDS011;7099;53.922;10.728;2023-05-23T19:00:26;13.83;;;2.97;;
14048;SDS011;7099;53.922;10.728;2023-05-23T19:04:32;14.80;;;3.40;;
14048;SDS011;7099;53.922;10.728;2023-05-23T19:08:37;11.67;;;3.10;;
14048;SDS011;7099;53.922;10.728;2023-05-23T19:12:45;14.50;;;3.40;;
14048;SDS011;7099;53.922;10.728;2023-05-23T19:16:51;16.13;;;3.67;;
14048;SDS011;7099;53.922;10.728;2023-05-23T19:20:57;19.97;;;2.70;;
14048;SDS011;7099;53.922;10.728;2023-05-23T19:25:03;20.77;;;3.27;;
14048;SDS011;7099;53.922;10.728;2023-05-23T19:29:11;16.60;;;3.00;;
14048;SDS011;7099;53.922;10.728;2023-05-23T19:33:17;16.50;;;3.20;;
14048;SDS011;7099;53.922;10.728;2023-05-23T19:37:22;14.40;;;3.20;;
14048;SDS011;7099;53.922;10.728;2023-05-23T19:41:28;17.23;;;3.50;;
14048;SDS011;7099;53.922;10.728;2023-05-23T19:45:36;10.17;;;2.60;;
14048;SDS011;7099;53.922;10.728;2023-05-23T19:49:41;17.30;;;3.13;;
14048;SDS011;7099;53.922;10.728;2023-05-23T19:53:47;11.93;;;2.70;;
14048;SDS011;7099;53.922;10.728;2023-05-23T19:57:53;20.50;;;3.23;;
14048;SDS011;7099;53.922;10.728;2023-05-23T20:01:58;12.47;;;3.23;;
14048;SDS011;7099;53.922;10.728;2023-05-23T20:06:04;17.93;;;2.90;;
14048;SDS011;7099;53.922;10.728;2023-05-23T20:10:09;17.90;;;3.20;;
14048;SDS011;7099;53.922;10.728;2023-05-23T20:14:15;18.10;;;3.03;;
14048;SDS011;7099;53.922;10.728;2023-05-23T20:18:21;12.90;;;2.90;;
14048;SDS011;7099;53.922;10.728;2023-05-23T20:22:26;20.83;;;3.97;;
14048;SDS011;7099;53.922;10.728;2023-05-23T20:26:32;19.73;;;3.47;;
14048;SDS011;7099;53.922;10.728;2023-05-23T20:30:38;15.17;;;3.40;;
14048;SDS011;7099;53.922;10.728;2023-05-23T20:34:43;20.47;;;3.60;;
14048;SDS011;7099;53.922;10.728;2023-05-23T20:38:49;13.03;;;3.10;;
14048;SDS011;7099;53.922;10.728;2023-05-23T20:42:57;19.27;;;3.33;;
14048;SDS011;7099;53.922;10.728;2023-05-23T20:47:08;23.53;;;3.10;;
14048;SDS011;7099;53.922;10.728;2023-05-23T20:51:16;14.13;;;3.43;;
14048;SDS011;7099;53.922;10.728;2023-05-23T20:55:22;18.23;;;2.97;;
14048;SDS011;7099;53.922;10.728;2023-05-23T20:59:29;23.87;;;3.23;;
14048;SDS011;7099;53.922;10.728;2023-05-23T21:03:34;14.33;;;3.50;;
14048;SDS011;7099;53.922;10.728;2023-05-23T21:07:40;19.10;;;3.30;;
14048;SDS011;7099;53.922;10.728;2023-05-23T21:11:45;22.63;;;4.20;;
14048;SDS011;7099;53.922;10.728;2023-05-23T21:15:51;21.63;;;3.80;;
14048;SDS011;7099;53.922;10.728;2023-05-23T21:19:56;19.73;;;4.10;;
14048;SDS011;7099;53.922;10.728;2023-05-23T21:24:02;21.37;;;4.80;;
14048;SDS011;7099;53.922;10.728;2023-05-23T21:28:08;17.17;;;3.40;;
14048;SDS011;7099;53.922;10.728;2023-05-23T21:32:15;20.20;;;3.70;;
14048;SDS011;7099;53.922;10.728;2023-05-23T21:36:20;14.87;;;3.63;;
14048;SDS011;7099;53.922;10.728;2023-05-23T21:40:26;20.00;;;3.83;;
14048;SDS011;7099;53.922;10.728;2023-05-23T21:44:31;22.70;;;4.40;;
14048;SDS011;7099;53.922;10.728;2023-05-23T21:48:37;16.07;;;3.27;;
14048;SDS011;7099;53.922;10.728;2023-05-23T21:52:43;28.30;;;4.57;;
14048;SDS011;7099;53.922;10.728;2023-05-23T21:56:48;14.13;;;3.10;;
14048;SDS011;7099;53.922;10.728;2023-05-23T22:00:54;19.10;;;3.20;;
14048;SDS011;7099;53.922;10.728;2023-05-23T22:05:00;16.47;;;4.00;;
14048;SDS011;7099;53.922;10.728;2023-05-23T22:09:05;17.70;;;4.10;;
14048;SDS011;7099;53.922;10.728;2023-05-23T22:13:15;24.73;;;3.97;;
14048;SDS011;7099;53.922;10.728;2023-05-23T22:17:21;19.17;;;3.73;;
14048;SDS011;7099;53.922;10.728;2023-05-23T22:21:30;21.33;;;4.63;;
14048;SDS011;7099;53.922;10.728;2023-05-23T22:25:35;20.23;;;4.27;;
14048;SDS011;7099;53.922;10.728;2023-05-23T22:29:42;13.70;;;3.27;;
14048;SDS011;7099;53.922;10.728;2023-05-23T22:33:47;19.87;;;3.90;;
14048;SDS011;7099;53.922;10.728;2023-05-23T22:37:53;18.83;;;3.60;;
14048;SDS011;7099;53.922;10.728;2023-05-23T22:41:59;28.40;;;4.43;;
14048;SDS011;7099;53.922;10.728;2023-05-23T22:46:05;19.40;;;4.03;;
14048;SDS011;7099;53.922;10.728;2023-05-23T22:50:11;20.83;;;4.20;;
14048;SDS011;7099;53.922;10.728;2023-05-23T22:54:16;27.67;;;4.77;;
14048;SDS011;7099;53.922;10.728;2023-05-23T22:58:22;21.50;;;4.10;;
14048;SDS011;7099;53.922;10.728;2023-05-23T23:02:28;37.23;;;5.37;;
14048;SDS011;7099;53.922;10.728;2023-05-23T23:06:33;17.07;;;4.60;;
14048;SDS011;7099;53.922;10.728;2023-05-23T23:10:39;19.83;;;4.47;;
14048;SDS011;7099;53.922;10.728;2023-05-23T23:14:45;17.10;;;3.47;;
14048;SDS011;7099;53.922;10.728;2023-05-23T23:18:51;27.50;;;5.00;;
14048;SDS011;7099;53.922;10.728;2023-05-23T23:22:57;28.60;;;5.40;;
14048;SDS011;7099;53.922;10.728;2023-05-23T23:27:03;34.27;;;5.70;;
14048;SDS011;7099;53.922;10.728;2023-05-23T23:31:09;24.00;;;5.33;;
14048;SDS011;7099;53.922;10.728;2023-05-23T23:35:14;25.57;;;4.77;;
14048;SDS011;7099;53.922;10.728;2023-05-23T23:39:20;21.57;;;4.80;;
14048;SDS011;7099;53.922;10.728;2023-05-23T23:43:25;28.20;;;4.60;;
14048;SDS011;7099;53.922;10.728;2023-05-23T23:47:31;31.20;;;5.60;;
14048;SDS011;7099;53.922;10.728;2023-05-23T23:51:36;31.73;;;5.50;;
14048;SDS011;7099;53.922;10.728;2023-05-23T23:55:42;21.80;;;5.13;;
14048;SDS011;7099;53.922;10.728;2023-05-23T23:59:48;27.03;;;6.27;;
